sensor_id;sensor_type;location;lat;lon;timestamp;P1;durP1;ratioP1;P2;durP2;ratioP2
6527;SDS011;64597;42.664;23.256;2023-11-18T00:00:39;0.38;;;0.20;;
6527;SDS011;64597;42.664;23.256;2023-11-18T00:03:06;0.65;;;0.30;;
6527;SDS011;64597;42.664;23.256;2023-11-18T00:05:31;0.82;;;0.60;;
6527;SDS011;64597;42.664;23.256;2023-11-18T00:07:57;0.55;;;0.25;;
6527;SDS011;64597;42.664;23.256;2023-11-18T00:10:22;0.30;;;0.30;;
6527;SDS011;64597;42.664;23.256;2023-11-18T00:12:48;1.00;;;0.40;;
6527;SDS011;64597;42.664;23.256;2023-11-18T00:15:15;0.22;;;0.20;;
6527;SDS011;64597;42.664;23.256;2023-11-18T00:17:40;0.43;;;0.20;;
6527;SDS011;64597;42.664;23.256;2023-11-18T00:20:06;0.55;;;0.40;;
6527;SDS011;64597;42.664;23.256;2023-11-18T00:22:35;0.38;;;0.30;;
6527;SDS011;64597;42.664;23.256;2023-11-18T00:25:02;0.43;;;0.30;;
6527;SDS011;64597;42.664;23.256;2023-11-18T00:27:30;1.25;;;0.50;;
6527;SDS011;64597;42.664;23.256;2023-11-18T00:29:56;0.68;;;0.38;;
6527;SDS011;64597;42.664;23.256;2023-11-18T00:32:21;0.30;;;0.30;;
6527;SDS011;64597;42.664;23.256;2023-11-18T00:34:47;0.75;;;0.35;;
6527;SDS011;64597;42.664;23.256;2023-11-18T00:37:13;0.65;;;0.30;;
6527;SDS011;64597;42.664;23.256;2023-11-18T00:39:38;1.55;;;0.55;;
6527;SDS011;64597;42.664;23.256;2023-11-18T00:42:04;0.43;;;0.20;;
6527;SDS011;64597;42.664;23.256;2023-11-18T00:44:30;0.32;;;0.22;;
6527;SDS011;64597;42.664;23.256;2023-11-18T00:46:56;0.50;;;0.40;;
6527;SDS011;64597;42.664;23.256;2023-11-18T00:49:22;0.43;;;0.43;;
6527;SDS011;64597;42.664;23.256;2023-11-18T00:51:48;0.55;;;0.30;;
6527;SDS011;64597;42.664;23.256;2023-11-18T00:54:14;1.02;;;0.30;;
6527;SDS011;64597;42.664;23.256;2023-11-18T00:56:39;0.45;;;0.30;;
6527;SDS011;64597;42.664;23.256;2023-11-18T00:59:04;0.55;;;0.40;;
6527;SDS011;64597;42.664;23.256;2023-11-18T01:01:31;0.57;;;0.20;;
6527;SDS011;64597;42.664;23.256;2023-11-18T01:03:57;0.50;;;0.40;;
6527;SDS011;64597;42.664;23.256;2023-11-18T01:06:24;0.63;;;0.40;;
6527;SDS011;64597;42.664;23.256;2023-11-18T01:08:51;0.68;;;0.47;;
6527;SDS011;64597;42.664;23.256;2023-11-18T01:11:17;0.70;;;0.50;;
6527;SDS011;64597;42.664;23.256;2023-11-18T01:13:44;0.90;;;0.60;;
6527;SDS011;64597;42.664;23.256;2023-11-18T01:16:16;0.40;;;0.30;;
6527;SDS011;64597;42.664;23.256;2023-11-18T01:18:42;0.50;;;0.40;;
6527;SDS011;64597;42.664;23.256;2023-11-18T01:21:08;0.75;;;0.43;;
6527;SDS011;64597;42.664;23.256;2023-11-18T01:23:37;3.33;;;0.63;;
6527;SDS011;64597;42.664;23.256;2023-11-18T01:26:07;0.73;;;0.50;;
6527;SDS011;64597;42.664;23.256;2023-11-18T01:28:36;0.55;;;0.45;;
6527;SDS011;64597;42.664;23.256;2023-11-18T01:31:05;0.68;;;0.50;;
6527;SDS011;64597;42.664;23.256;2023-11-18T01:33:34;1.27;;;0.90;;
6527;SDS011;64597;42.664;23.256;2023-11-18T01:36:06;0.75;;;0.50;;
6527;SDS011;64597;42.664;23.256;2023-11-18T01:38:36;0.70;;;0.50;;
6527;SDS011;64597;42.664;23.256;2023-11-18T01:41:05;0.73;;;0.60;;
6527;SDS011;64597;42.664;23.256;2023-11-18T01:43:32;1.23;;;0.68;;
6527;SDS011;64597;42.664;23.256;2023-11-18T01:46:00;0.95;;;0.57;;
6527;SDS011;64597;42.664;23.256;2023-11-18T01:48:28;1.10;;;0.63;;
6527;SDS011;64597;42.664;23.256;2023-11-18T01:50:56;0.77;;;0.73;;
6527;SDS011;64597;42.664;23.256;2023-11-18T01:53:23;0.85;;;0.70;;
6527;SDS011;64597;42.664;23.256;2023-11-18T01:55:49;1.60;;;0.75;;
6527;SDS011;64597;42.664;23.256;2023-11-18T01:58:15;1.95;;;1.08;;
6527;SDS011;64597;42.664;23.256;2023-11-18T02:00:44;2.67;;;0.60;;
6527;SDS011;64597;42.664;23.256;2023-11-18T02:03:12;1.23;;;0.75;;
6527;SDS011;64597;42.664;23.256;2023-11-18T02:05:38;0.63;;;0.50;;
6527;SDS011;64597;42.664;23.256;2023-11-18T02:08:03;1.00;;;0.70;;
6527;SDS011;64597;42.664;23.256;2023-11-18T02:10:33;0.90;;;0.50;;
6527;SDS011;64597;42.664;23.256;2023-11-18T02:13:22;1.02;;;0.75;;
6527;SDS011;64597;42.664;23.256;2023-11-18T02:15:58;1.27;;;0.70;;
6527;SDS011;64597;42.664;23.256;2023-11-18T02:18:31;1.17;;;0.60;;
6527;SDS011;64597;42.664;23.256;2023-11-18T02:20:57;0.95;;;0.60;;
6527;SDS011;64597;42.664;23.256;2023-11-18T02:23:24;1.13;;;1.02;;
6527;SDS011;64597;42.664;23.256;2023-11-18T02:25:53;1.92;;;1.05;;
6527;SDS011;64597;42.664;23.256;2023-11-18T02:28:20;1.25;;;0.75;;
6527;SDS011;64597;42.664;23.256;2023-11-18T02:30:47;1.48;;;0.88;;
6527;SDS011;64597;42.664;23.256;2023-11-18T02:33:16;2.00;;;0.80;;
6527;SDS011;64597;42.664;23.256;2023-11-18T02:35:53;1.10;;;0.90;;
6527;SDS011;64597;42.664;23.256;2023-11-18T02:38:29;1.33;;;0.98;;
6527;SDS011;64597;42.664;23.256;2023-11-18T02:40:58;1.00;;;0.80;;
6527;SDS011;64597;42.664;23.256;2023-11-18T02:43:32;0.93;;;0.65;;
6527;SDS011;64597;42.664;23.256;2023-11-18T02:45:58;1.00;;;0.90;;
6527;SDS011;64597;42.664;23.256;2023-11-18T02:48:25;1.25;;;1.00;;
6527;SDS011;64597;42.664;23.256;2023-11-18T02:50:53;0.82;;;0.70;;
6527;SDS011;64597;42.664;23.256;2023-11-18T02:53:19;0.90;;;0.80;;
6527;SDS011;64597;42.664;23.256;2023-11-18T02:55:45;1.67;;;0.95;;
6527;SDS011;64597;42.664;23.256;2023-11-18T02:58:11;1.38;;;0.82;;
6527;SDS011;64597;42.664;23.256;2023-11-18T03:00:36;1.27;;;0.52;;
6527;SDS011;64597;42.664;23.256;2023-11-18T03:03:03;1.40;;;0.90;;
6527;SDS011;64597;42.664;23.256;2023-11-18T03:05:30;1.20;;;0.90;;
6527;SDS011;64597;42.664;23.256;2023-11-18T03:07:55;1.50;;;0.98;;
6527;SDS011;64597;42.664;23.256;2023-11-18T03:10:23;1.25;;;0.80;;
6527;SDS011;64597;42.664;23.256;2023-11-18T03:12:52;1.13;;;0.90;;
6527;SDS011;64597;42.664;23.256;2023-11-18T03:15:19;0.93;;;0.82;;
6527;SDS011;64597;42.664;23.256;2023-11-18T03:17:46;1.60;;;0.93;;
6527;SDS011;64597;42.664;23.256;2023-11-18T03:20:13;1.33;;;1.23;;
6527;SDS011;64597;42.664;23.256;2023-11-18T03:22:45;1.58;;;0.82;;
6527;SDS011;64597;42.664;23.256;2023-11-18T03:25:11;2.65;;;1.45;;
6527;SDS011;64597;42.664;23.256;2023-11-18T03:27:37;0.80;;;0.70;;
6527;SDS011;64597;42.664;23.256;2023-11-18T03:30:04;1.60;;;1.15;;
6527;SDS011;64597;42.664;23.256;2023-11-18T03:32:31;1.83;;;1.20;;
6527;SDS011;64597;42.664;23.256;2023-11-18T03:34:57;1.73;;;1.10;;
6527;SDS011;64597;42.664;23.256;2023-11-18T03:37:24;1.70;;;1.17;;
6527;SDS011;64597;42.664;23.256;2023-11-18T03:39:51;1.35;;;0.75;;
6527;SDS011;64597;42.664;23.256;2023-11-18T03:42:17;1.45;;;1.08;;
6527;SDS011;64597;42.664;23.256;2023-11-18T03:44:43;1.45;;;1.20;;
6527;SDS011;64597;42.664;23.256;2023-11-18T03:47:12;1.40;;;1.20;;
6527;SDS011;64597;42.664;23.256;2023-11-18T03:52:06;1.98;;;1.35;;
6527;SDS011;64597;42.664;23.256;2023-11-18T03:54:32;2.35;;;1.30;;
6527;SDS011;64597;42.664;23.256;2023-11-18T03:56:58;1.45;;;1.08;;
6527;SDS011;64597;42.664;23.256;2023-11-18T03:59:24;2.38;;;1.52;;
6527;SDS011;64597;42.664;23.256;2023-11-18T04:01:50;1.65;;;1.17;;
6527;SDS011;64597;42.664;23.256;2023-11-18T04:04:16;2.00;;;1.33;;
6527;SDS011;64597;42.664;23.256;2023-11-18T04:06:42;1.75;;;1.20;;
6527;SDS011;64597;42.664;23.256;2023-11-18T04:09:08;1.65;;;1.30;;
6527;SDS011;64597;42.664;23.256;2023-11-18T04:11:35;1.58;;;1.20;;
6527;SDS011;64597;42.664;23.256;2023-11-18T04:14:01;2.28;;;1.40;;
6527;SDS011;64597;42.664;23.256;2023-11-18T04:16:28;1.25;;;0.98;;
6527;SDS011;64597;42.664;23.256;2023-11-18T04:18:54;1.88;;;1.33;;
6527;SDS011;64597;42.664;23.256;2023-11-18T04:21:19;2.03;;;1.23;;
6527;SDS011;64597;42.664;23.256;2023-11-18T04:23:45;2.45;;;1.58;;
6527;SDS011;64597;42.664;23.256;2023-11-18T04:26:12;2.83;;;1.52;;
6527;SDS011;64597;42.664;23.256;2023-11-18T04:28:37;1.98;;;1.35;;
6527;SDS011;64597;42.664;23.256;2023-11-18T04:31:03;1.65;;;1.23;;
6527;SDS011;64597;42.664;23.256;2023-11-18T04:33:30;1.60;;;1.23;;
6527;SDS011;64597;42.664;23.256;2023-11-18T04:35:56;0.65;;;0.52;;
6527;SDS011;64597;42.664;23.256;2023-11-18T04:38:25;1.85;;;1.17;;
6527;SDS011;64597;42.664;23.256;2023-11-18T04:40:51;1.83;;;1.23;;
6527;SDS011;64597;42.664;23.256;2023-11-18T04:43:19;1.83;;;0.98;;
6527;SDS011;64597;42.664;23.256;2023-11-18T04:45:45;1.20;;;0.98;;
6527;SDS011;64597;42.664;23.256;2023-11-18T04:48:11;1.48;;;1.10;;
6527;SDS011;64597;42.664;23.256;2023-11-18T04:53:08;3.15;;;1.25;;
6527;SDS011;64597;42.664;23.256;2023-11-18T04:55:35;4.32;;;1.40;;
6527;SDS011;64597;42.664;23.256;2023-11-18T04:58:01;1.70;;;1.38;;
6527;SDS011;64597;42.664;23.256;2023-11-18T05:00:26;1.92;;;1.20;;
6527;SDS011;64597;42.664;23.256;2023-11-18T05:02:52;3.38;;;2.00;;
6527;SDS011;64597;42.664;23.256;2023-11-18T05:05:18;1.58;;;1.15;;
6527;SDS011;64597;42.664;23.256;2023-11-18T05:07:44;1.98;;;1.17;;
6527;SDS011;64597;42.664;23.256;2023-11-18T05:10:10;1.20;;;0.90;;
6527;SDS011;64597;42.664;23.256;2023-11-18T05:12:36;2.42;;;1.10;;
6527;SDS011;64597;42.664;23.256;2023-11-18T05:15:03;1.90;;;1.02;;
6527;SDS011;64597;42.664;23.256;2023-11-18T05:17:30;1.83;;;1.13;;
6527;SDS011;64597;42.664;23.256;2023-11-18T05:19:55;2.20;;;1.13;;
6527;SDS011;64597;42.664;23.256;2023-11-18T05:22:21;1.80;;;1.00;;
6527;SDS011;64597;42.664;23.256;2023-11-18T05:24:47;1.05;;;0.95;;
6527;SDS011;64597;42.664;23.256;2023-11-18T05:27:13;1.63;;;0.90;;
6527;SDS011;64597;42.664;23.256;2023-11-18T05:29:39;1.90;;;1.10;;
6527;SDS011;64597;42.664;23.256;2023-11-18T05:32:06;1.08;;;0.90;;
6527;SDS011;64597;42.664;23.256;2023-11-18T05:34:32;2.15;;;1.10;;
6527;SDS011;64597;42.664;23.256;2023-11-18T05:37:00;1.38;;;1.23;;
6527;SDS011;64597;42.664;23.256;2023-11-18T05:39:26;2.38;;;1.38;;
6527;SDS011;64597;42.664;23.256;2023-11-18T05:41:53;1.50;;;0.93;;
6527;SDS011;64597;42.664;23.256;2023-11-18T05:44:21;2.55;;;1.30;;
6527;SDS011;64597;42.664;23.256;2023-11-18T05:46:56;1.58;;;1.00;;
6527;SDS011;64597;42.664;23.256;2023-11-18T05:49:24;1.23;;;0.80;;
6527;SDS011;64597;42.664;23.256;2023-11-18T05:51:50;0.80;;;0.75;;
6527;SDS011;64597;42.664;23.256;2023-11-18T05:54:16;0.90;;;0.73;;
6527;SDS011;64597;42.664;23.256;2023-11-18T05:56:43;1.58;;;0.90;;
6527;SDS011;64597;42.664;23.256;2023-11-18T05:59:09;1.40;;;0.98;;
6527;SDS011;64597;42.664;23.256;2023-11-18T06:01:40;1.17;;;0.73;;
6527;SDS011;64597;42.664;23.256;2023-11-18T06:04:07;2.38;;;1.13;;
6527;SDS011;64597;42.664;23.256;2023-11-18T06:06:47;3.03;;;0.77;;
6527;SDS011;64597;42.664;23.256;2023-11-18T06:09:48;1.25;;;0.60;;
6527;SDS011;64597;42.664;23.256;2023-11-18T06:12:14;1.33;;;0.70;;
6527;SDS011;64597;42.664;23.256;2023-11-18T06:14:42;1.77;;;0.70;;
6527;SDS011;64597;42.664;23.256;2023-11-18T06:17:10;0.73;;;0.45;;
6527;SDS011;64597;42.664;23.256;2023-11-18T06:19:38;0.80;;;0.50;;
6527;SDS011;64597;42.664;23.256;2023-11-18T06:22:04;2.45;;;0.43;;
6527;SDS011;64597;42.664;23.256;2023-11-18T06:24:31;1.02;;;0.40;;
6527;SDS011;64597;42.664;23.256;2023-11-18T06:26:56;0.70;;;0.50;;
6527;SDS011;64597;42.664;23.256;2023-11-18T06:29:24;1.30;;;0.70;;
6527;SDS011;64597;42.664;23.256;2023-11-18T06:31:50;0.68;;;0.57;;
6527;SDS011;64597;42.664;23.256;2023-11-18T06:34:15;0.98;;;0.50;;
6527;SDS011;64597;42.664;23.256;2023-11-18T06:36:41;1.50;;;0.30;;
6527;SDS011;64597;42.664;23.256;2023-11-18T06:39:07;0.93;;;0.80;;
6527;SDS011;64597;42.664;23.256;2023-11-18T06:41:33;1.73;;;1.05;;
6527;SDS011;64597;42.664;23.256;2023-11-18T06:44:00;1.48;;;0.40;;
6527;SDS011;64597;42.664;23.256;2023-11-18T06:48:57;0.60;;;0.30;;
6527;SDS011;64597;42.664;23.256;2023-11-18T06:51:24;0.50;;;0.40;;
6527;SDS011;64597;42.664;23.256;2023-11-18T06:53:52;0.50;;;0.40;;
6527;SDS011;64597;42.664;23.256;2023-11-18T06:56:25;0.63;;;0.50;;
6527;SDS011;64597;42.664;23.256;2023-11-18T06:58:51;0.50;;;0.35;;
6527;SDS011;64597;42.664;23.256;2023-11-18T07:01:17;0.70;;;0.50;;
6527;SDS011;64597;42.664;23.256;2023-11-18T07:03:46;2.13;;;0.30;;
6527;SDS011;64597;42.664;23.256;2023-11-18T07:06:19;0.28;;;0.28;;
6527;SDS011;64597;42.664;23.256;2023-11-18T07:08:50;0.57;;;0.47;;
6527;SDS011;64597;42.664;23.256;2023-11-18T07:11:17;0.45;;;0.30;;
6527;SDS011;64597;42.664;23.256;2023-11-18T07:13:43;1.00;;;0.40;;
6527;SDS011;64597;42.664;23.256;2023-11-18T07:16:10;0.30;;;0.17;;
6527;SDS011;64597;42.664;23.256;2023-11-18T07:18:36;0.60;;;0.40;;
6527;SDS011;64597;42.664;23.256;2023-11-18T07:21:03;0.45;;;0.32;;
6527;SDS011;64597;42.664;23.256;2023-11-18T07:23:30;0.85;;;0.30;;
6527;SDS011;64597;42.664;23.256;2023-11-18T07:25:59;2.25;;;0.45;;
6527;SDS011;64597;42.664;23.256;2023-11-18T07:28:25;0.95;;;0.30;;
6527;SDS011;64597;42.664;23.256;2023-11-18T07:30:52;2.40;;;0.50;;
6527;SDS011;64597;42.664;23.256;2023-11-18T07:33:19;0.50;;;0.40;;
6527;SDS011;64597;42.664;23.256;2023-11-18T07:35:46;1.05;;;0.50;;
6527;SDS011;64597;42.664;23.256;2023-11-18T07:38:13;0.60;;;0.38;;
6527;SDS011;64597;42.664;23.256;2023-11-18T07:40:39;0.20;;;0.20;;
6527;SDS011;64597;42.664;23.256;2023-11-18T07:43:10;0.60;;;0.20;;
6527;SDS011;64597;42.664;23.256;2023-11-18T07:45:40;0.60;;;0.40;;
6527;SDS011;64597;42.664;23.256;2023-11-18T07:48:07;0.60;;;0.32;;
6527;SDS011;64597;42.664;23.256;2023-11-18T07:50:38;0.60;;;0.32;;
6527;SDS011;64597;42.664;23.256;2023-11-18T07:53:06;0.35;;;0.30;;
6527;SDS011;64597;42.664;23.256;2023-11-18T07:55:32;0.40;;;0.38;;
6527;SDS011;64597;42.664;23.256;2023-11-18T07:58:08;0.50;;;0.40;;
6527;SDS011;64597;42.664;23.256;2023-11-18T08:00:39;0.35;;;0.32;;
6527;SDS011;64597;42.664;23.256;2023-11-18T08:03:08;0.30;;;0.30;;
6527;SDS011;64597;42.664;23.256;2023-11-18T08:05:43;0.90;;;0.32;;
6527;SDS011;64597;42.664;23.256;2023-11-18T08:08:10;0.75;;;0.40;;
6527;SDS011;64597;42.664;23.256;2023-11-18T08:10:36;1.13;;;0.40;;
6527;SDS011;64597;42.664;23.256;2023-11-18T08:13:07;1.35;;;0.60;;
6527;SDS011;64597;42.664;23.256;2023-11-18T08:15:42;2.50;;;0.90;;
6527;SDS011;64597;42.664;23.256;2023-11-18T08:18:11;1.17;;;0.60;;
6527;SDS011;64597;42.664;23.256;2023-11-18T08:20:37;0.88;;;0.60;;
6527;SDS011;64597;42.664;23.256;2023-11-18T08:23:03;1.10;;;0.60;;
6527;SDS011;64597;42.664;23.256;2023-11-18T08:25:32;1.02;;;0.40;;
6527;SDS011;64597;42.664;23.256;2023-11-18T08:28:01;1.90;;;0.60;;
6527;SDS011;64597;42.664;23.256;2023-11-18T08:30:27;0.98;;;0.30;;
6527;SDS011;64597;42.664;23.256;2023-11-18T08:32:52;0.73;;;0.50;;
6527;SDS011;64597;42.664;23.256;2023-11-18T08:35:18;0.30;;;0.30;;
6527;SDS011;64597;42.664;23.256;2023-11-18T08:37:45;0.60;;;0.40;;
6527;SDS011;64597;42.664;23.256;2023-11-18T08:40:12;0.63;;;0.30;;
6527;SDS011;64597;42.664;23.256;2023-11-18T08:42:47;0.32;;;0.30;;
6527;SDS011;64597;42.664;23.256;2023-11-18T08:45:15;0.60;;;0.43;;
6527;SDS011;64597;42.664;23.256;2023-11-18T08:47:45;0.45;;;0.30;;
6527;SDS011;64597;42.664;23.256;2023-11-18T08:50:15;0.73;;;0.35;;
6527;SDS011;64597;42.664;23.256;2023-11-18T08:52:42;0.80;;;0.50;;
6527;SDS011;64597;42.664;23.256;2023-11-18T08:55:15;1.30;;;0.50;;
6527;SDS011;64597;42.664;23.256;2023-11-18T08:57:50;0.80;;;0.60;;
6527;SDS011;64597;42.664;23.256;2023-11-18T09:00:29;1.10;;;0.70;;
6527;SDS011;64597;42.664;23.256;2023-11-18T09:03:16;0.63;;;0.40;;
6527;SDS011;64597;42.664;23.256;2023-11-18T09:05:46;0.50;;;0.40;;
6527;SDS011;64597;42.664;23.256;2023-11-18T09:08:37;0.93;;;0.43;;
6527;SDS011;64597;42.664;23.256;2023-11-18T09:11:04;0.65;;;0.50;;
6527;SDS011;64597;42.664;23.256;2023-11-18T09:13:32;0.73;;;0.43;;
6527;SDS011;64597;42.664;23.256;2023-11-18T09:16:00;0.98;;;0.20;;
6527;SDS011;64597;42.664;23.256;2023-11-18T09:18:28;0.22;;;0.15;;
6527;SDS011;64597;42.664;23.256;2023-11-18T09:20:55;0.73;;;0.47;;
6527;SDS011;64597;42.664;23.256;2023-11-18T09:23:24;0.22;;;0.20;;
6527;SDS011;64597;42.664;23.256;2023-11-18T09:25:52;1.20;;;0.50;;
6527;SDS011;64597;42.664;23.256;2023-11-18T09:28:19;0.60;;;0.40;;
6527;SDS011;64597;42.664;23.256;2023-11-18T09:30:45;0.52;;;0.40;;
6527;SDS011;64597;42.664;23.256;2023-11-18T09:33:18;0.50;;;0.30;;
6527;SDS011;64597;42.664;23.256;2023-11-18T09:35:54;0.30;;;0.30;;
6527;SDS011;64597;42.664;23.256;2023-11-18T09:38:24;0.73;;;0.40;;
6527;SDS011;64597;42.664;23.256;2023-11-18T09:41:06;1.80;;;0.85;;
6527;SDS011;64597;42.664;23.256;2023-11-18T09:43:38;0.75;;;0.40;;
6527;SDS011;64597;42.664;23.256;2023-11-18T09:46:15;0.57;;;0.38;;
6527;SDS011;64597;42.664;23.256;2023-11-18T09:49:17;1.83;;;0.63;;
6527;SDS011;64597;42.664;23.256;2023-11-18T09:51:43;1.20;;;0.80;;
6527;SDS011;64597;42.664;23.256;2023-11-18T09:54:20;0.88;;;0.28;;
6527;SDS011;64597;42.664;23.256;2023-11-18T09:59:58;0.85;;;0.30;;
6527;SDS011;64597;42.664;23.256;2023-11-18T10:02:51;0.47;;;0.30;;
6527;SDS011;64597;42.664;23.256;2023-11-18T10:05:18;0.93;;;0.20;;
6527;SDS011;64597;42.664;23.256;2023-11-18T10:07:51;1.30;;;0.50;;
6527;SDS011;64597;42.664;23.256;2023-11-18T10:10:19;1.95;;;0.60;;
6527;SDS011;64597;42.664;23.256;2023-11-18T10:12:50;0.98;;;0.40;;
6527;SDS011;64597;42.664;23.256;2023-11-18T10:15:23;0.30;;;0.30;;
6527;SDS011;64597;42.664;23.256;2023-11-18T10:17:50;0.90;;;0.68;;
6527;SDS011;64597;42.664;23.256;2023-11-18T10:20:50;0.50;;;0.40;;
6527;SDS011;64597;42.664;23.256;2023-11-18T10:23:17;0.38;;;0.30;;
6527;SDS011;64597;42.664;23.256;2023-11-18T10:25:50;0.60;;;0.40;;
6527;SDS011;64597;42.664;23.256;2023-11-18T10:30:53;0.38;;;0.32;;
6527;SDS011;64597;42.664;23.256;2023-11-18T10:33:19;0.77;;;0.45;;
6527;SDS011;64597;42.664;23.256;2023-11-18T10:35:50;0.68;;;0.40;;
6527;SDS011;64597;42.664;23.256;2023-11-18T10:38:17;0.70;;;0.35;;
6527;SDS011;64597;42.664;23.256;2023-11-18T10:40:46;0.60;;;0.40;;
6527;SDS011;64597;42.664;23.256;2023-11-18T10:43:12;1.65;;;0.60;;
6527;SDS011;64597;42.664;23.256;2023-11-18T10:45:40;1.25;;;0.38;;
6527;SDS011;64597;42.664;23.256;2023-11-18T10:48:06;6.28;;;1.80;;
6527;SDS011;64597;42.664;23.256;2023-11-18T10:50:32;5.07;;;2.70;;
6527;SDS011;64597;42.664;23.256;2023-11-18T10:52:59;1.42;;;0.70;;
6527;SDS011;64597;42.664;23.256;2023-11-18T10:55:38;2.50;;;0.98;;
6527;SDS011;64597;42.664;23.256;2023-11-18T10:58:08;1.85;;;0.73;;
6527;SDS011;64597;42.664;23.256;2023-11-18T11:01:07;1.08;;;0.60;;
6527;SDS011;64597;42.664;23.256;2023-11-18T11:03:26;3.75;;;0.77;;
6527;SDS011;64597;42.664;23.256;2023-11-18T11:05:58;0.98;;;0.80;;
6527;SDS011;64597;42.664;23.256;2023-11-18T11:08:25;0.98;;;0.40;;
6527;SDS011;64597;42.664;23.256;2023-11-18T11:10:52;1.30;;;0.50;;
6527;SDS011;64597;42.664;23.256;2023-11-18T11:13:23;0.90;;;0.60;;
6527;SDS011;64597;42.664;23.256;2023-11-18T11:15:49;1.45;;;0.80;;
6527;SDS011;64597;42.664;23.256;2023-11-18T11:18:20;2.20;;;1.00;;
6527;SDS011;64597;42.664;23.256;2023-11-18T11:20:59;1.50;;;0.93;;
6527;SDS011;64597;42.664;23.256;2023-11-18T11:29:04;0.88;;;0.60;;
6527;SDS011;64597;42.664;23.256;2023-11-18T11:31:35;1.77;;;0.77;;
6527;SDS011;64597;42.664;23.256;2023-11-18T11:34:14;0.88;;;0.52;;
6527;SDS011;64597;42.664;23.256;2023-11-18T11:36:48;0.68;;;0.47;;
6527;SDS011;64597;42.664;23.256;2023-11-18T11:39:16;2.47;;;0.98;;
6527;SDS011;64597;42.664;23.256;2023-11-18T11:41:51;2.40;;;0.80;;
6527;SDS011;64597;42.664;23.256;2023-11-18T11:44:20;2.33;;;0.85;;
6527;SDS011;64597;42.664;23.256;2023-11-18T11:46:48;1.40;;;0.60;;
6527;SDS011;64597;42.664;23.256;2023-11-18T11:49:19;0.75;;;0.43;;
6527;SDS011;64597;42.664;23.256;2023-11-18T11:51:52;0.90;;;0.57;;
6527;SDS011;64597;42.664;23.256;2023-11-18T11:54:31;0.80;;;0.60;;
6527;SDS011;64597;42.664;23.256;2023-11-18T11:57:03;0.80;;;0.40;;
6527;SDS011;64597;42.664;23.256;2023-11-18T12:02:24;0.80;;;0.73;;
6527;SDS011;64597;42.664;23.256;2023-11-18T12:04:55;1.05;;;0.60;;
6527;SDS011;64597;42.664;23.256;2023-11-18T12:07:26;1.10;;;0.80;;
6527;SDS011;64597;42.664;23.256;2023-11-18T12:09:56;1.38;;;0.98;;
6527;SDS011;64597;42.664;23.256;2023-11-18T12:12:24;0.90;;;0.60;;
6527;SDS011;64597;42.664;23.256;2023-11-18T12:17:25;2.25;;;0.90;;
6527;SDS011;64597;42.664;23.256;2023-11-18T12:19:57;2.13;;;0.80;;
6527;SDS011;64597;42.664;23.256;2023-11-18T12:25:39;1.10;;;0.60;;
6527;SDS011;64597;42.664;23.256;2023-11-18T12:28:14;1.25;;;0.60;;
6527;SDS011;64597;42.664;23.256;2023-11-18T12:30:45;1.80;;;0.80;;
6527;SDS011;64597;42.664;23.256;2023-11-18T12:33:26;0.80;;;0.68;;
6527;SDS011;64597;42.664;23.256;2023-11-18T12:42:05;1.15;;;0.82;;
6527;SDS011;64597;42.664;23.256;2023-11-18T12:47:57;1.80;;;0.60;;
6527;SDS011;64597;42.664;23.256;2023-11-18T12:50:37;1.15;;;0.50;;
6527;SDS011;64597;42.664;23.256;2023-11-18T12:53:05;1.00;;;0.70;;
6527;SDS011;64597;42.664;23.256;2023-11-18T12:55:31;2.00;;;1.27;;
6527;SDS011;64597;42.664;23.256;2023-11-18T12:58:01;2.35;;;1.00;;
6527;SDS011;64597;42.664;23.256;2023-11-18T13:00:26;1.70;;;0.88;;
6527;SDS011;64597;42.664;23.256;2023-11-18T13:02:56;0.98;;;0.70;;
6527;SDS011;64597;42.664;23.256;2023-11-18T13:05:23;1.10;;;0.80;;
6527;SDS011;64597;42.664;23.256;2023-11-18T13:07:55;1.55;;;1.00;;
6527;SDS011;64597;42.664;23.256;2023-11-18T13:10:23;1.40;;;0.90;;
6527;SDS011;64597;42.664;23.256;2023-11-18T13:12:52;1.83;;;1.35;;
6527;SDS011;64597;42.664;23.256;2023-11-18T13:15:18;2.13;;;1.10;;
6527;SDS011;64597;42.664;23.256;2023-11-18T13:18:00;0.80;;;0.60;;
6527;SDS011;64597;42.664;23.256;2023-11-18T13:20:28;2.95;;;0.93;;
6527;SDS011;64597;42.664;23.256;2023-11-18T13:22:54;2.13;;;1.00;;
6527;SDS011;64597;42.664;23.256;2023-11-18T13:25:22;1.33;;;0.90;;
6527;SDS011;64597;42.664;23.256;2023-11-18T13:27:48;1.02;;;0.80;;
6527;SDS011;64597;42.664;23.256;2023-11-18T13:30:15;0.98;;;0.52;;
6527;SDS011;64597;42.664;23.256;2023-11-18T13:32:42;1.20;;;1.00;;
6527;SDS011;64597;42.664;23.256;2023-11-18T13:35:08;1.20;;;0.85;;
6527;SDS011;64597;42.664;23.256;2023-11-18T13:37:39;1.58;;;0.80;;
6527;SDS011;64597;42.664;23.256;2023-11-18T13:40:11;3.50;;;1.00;;
6527;SDS011;64597;42.664;23.256;2023-11-18T13:42:41;1.20;;;0.85;;
6527;SDS011;64597;42.664;23.256;2023-11-18T13:45:13;1.10;;;0.73;;
6527;SDS011;64597;42.664;23.256;2023-11-18T13:47:51;3.20;;;1.25;;
6527;SDS011;64597;42.664;23.256;2023-11-18T13:50:19;2.17;;;1.10;;
6527;SDS011;64597;42.664;23.256;2023-11-18T13:52:46;1.45;;;1.10;;
6527;SDS011;64597;42.664;23.256;2023-11-18T13:55:14;1.50;;;0.90;;
6527;SDS011;64597;42.664;23.256;2023-11-18T13:57:57;1.33;;;1.20;;
6527;SDS011;64597;42.664;23.256;2023-11-18T14:00:25;1.52;;;0.70;;
6527;SDS011;64597;42.664;23.256;2023-11-18T14:02:56;1.67;;;1.00;;
6527;SDS011;64597;42.664;23.256;2023-11-18T14:05:23;2.33;;;1.00;;
6527;SDS011;64597;42.664;23.256;2023-11-18T14:07:52;1.40;;;1.17;;
6527;SDS011;64597;42.664;23.256;2023-11-18T14:10:22;1.85;;;1.20;;
6527;SDS011;64597;42.664;23.256;2023-11-18T14:13:03;0.90;;;0.80;;
6527;SDS011;64597;42.664;23.256;2023-11-18T14:15:31;2.03;;;1.52;;
6527;SDS011;64597;42.664;23.256;2023-11-18T14:18:00;1.75;;;1.05;;
6527;SDS011;64597;42.664;23.256;2023-11-18T14:20:32;2.20;;;1.38;;
6527;SDS011;64597;42.664;23.256;2023-11-18T14:23:01;1.38;;;1.27;;
6527;SDS011;64597;42.664;23.256;2023-11-18T14:25:30;1.83;;;0.90;;
6527;SDS011;64597;42.664;23.256;2023-11-18T14:27:57;2.22;;;1.10;;
6527;SDS011;64597;42.664;23.256;2023-11-18T14:30:23;3.22;;;1.60;;
6527;SDS011;64597;42.664;23.256;2023-11-18T14:32:53;2.60;;;1.30;;
6527;SDS011;64597;42.664;23.256;2023-11-18T14:35:20;1.40;;;1.00;;
6527;SDS011;64597;42.664;23.256;2023-11-18T14:37:47;1.98;;;1.20;;
6527;SDS011;64597;42.664;23.256;2023-11-18T14:40:13;3.78;;;1.52;;
6527;SDS011;64597;42.664;23.256;2023-11-18T14:42:47;1.95;;;1.15;;
6527;SDS011;64597;42.664;23.256;2023-11-18T14:45:16;2.65;;;1.70;;
6527;SDS011;64597;42.664;23.256;2023-11-18T14:47:42;1.38;;;1.27;;
6527;SDS011;64597;42.664;23.256;2023-11-18T14:50:10;2.05;;;1.55;;
6527;SDS011;64597;42.664;23.256;2023-11-18T14:52:43;2.20;;;1.80;;
6527;SDS011;64597;42.664;23.256;2023-11-18T14:55:10;2.28;;;1.38;;
6527;SDS011;64597;42.664;23.256;2023-11-18T14:57:38;2.05;;;1.33;;
6527;SDS011;64597;42.664;23.256;2023-11-18T15:00:07;2.17;;;1.25;;
6527;SDS011;64597;42.664;23.256;2023-11-18T15:02:33;3.75;;;1.10;;
6527;SDS011;64597;42.664;23.256;2023-11-18T15:05:04;1.65;;;1.35;;
6527;SDS011;64597;42.664;23.256;2023-11-18T15:07:34;1.75;;;1.27;;
6527;SDS011;64597;42.664;23.256;2023-11-18T15:10:00;2.65;;;1.52;;
6527;SDS011;64597;42.664;23.256;2023-11-18T15:12:25;1.60;;;1.27;;
6527;SDS011;64597;42.664;23.256;2023-11-18T15:14:52;3.08;;;1.40;;
6527;SDS011;64597;42.664;23.256;2023-11-18T15:17:17;1.38;;;1.27;;
6527;SDS011;64597;42.664;23.256;2023-11-18T15:19:43;1.67;;;1.23;;
6527;SDS011;64597;42.664;23.256;2023-11-18T15:22:09;2.00;;;1.20;;
6527;SDS011;64597;42.664;23.256;2023-11-18T15:24:35;2.35;;;1.27;;
6527;SDS011;64597;42.664;23.256;2023-11-18T15:27:00;2.97;;;1.60;;
6527;SDS011;64597;42.664;23.256;2023-11-18T15:29:28;2.20;;;1.40;;
6527;SDS011;64597;42.664;23.256;2023-11-18T15:31:58;1.77;;;1.13;;
6527;SDS011;64597;42.664;23.256;2023-11-18T15:34:24;1.40;;;1.10;;